Cape Newenham, Alaska
Current Conditions -  °F | °C
As of 11:55 AM on Friday 19 Dec 2014 (Local Time) from PAEH Reporting Station
Few Clouds Few Clouds  
Wind Chill: 28°   Ceiling: Unl
Heat Index: 34°   Visibility: 10mi
Dew Point: 19°   Wind: 7mph
Humidity: 54%   Direction: 110°ESE
Pressure: 29.01"   Gusts: NA
Location:  58.65°N, 162.06°W
Report Text: PAEH 192055Z AUTO 11006KT 10SM FEW150 01/M07 A2901 RMK AO2 SLP829 T00121072 54001
Loading
Personal Weather Stations






























Interactive Weather Map New forecast layout! Learn more

10-Day Weather Forecast

Advertisements
Track Severe Weather on mobile